sensor_id;sensor_type;location;lat;lon;timestamp;P1;durP1;ratioP1;P2;durP2;ratioP2
7025;SDS011;3554;42.132;24.786;2022-12-10T00:02:02;38.03;;;19.43;;
7025;SDS011;3554;42.132;24.786;2022-12-10T00:04:29;38.43;;;19.00;;
7025;SDS011;3554;42.132;24.786;2022-12-10T00:06:56;34.27;;;18.70;;
7025;SDS011;3554;42.132;24.786;2022-12-10T00:09:22;32.67;;;18.40;;
7025;SDS011;3554;42.132;24.786;2022-12-10T00:11:49;37.67;;;19.43;;
7025;SDS011;3554;42.132;24.786;2022-12-10T00:14:16;35.87;;;18.67;;
7025;SDS011;3554;42.132;24.786;2022-12-10T00:16:45;34.63;;;18.17;;
7025;SDS011;3554;42.132;24.786;2022-12-10T00:19:11;36.43;;;18.80;;
7025;SDS011;3554;42.132;24.786;2022-12-10T00:21:38;31.73;;;17.63;;
7025;SDS011;3554;42.132;24.786;2022-12-10T00:24:05;30.83;;;16.87;;
7025;SDS011;3554;42.132;24.786;2022-12-10T00:26:34;34.03;;;18.33;;
7025;SDS011;3554;42.132;24.786;2022-12-10T00:29:04;36.07;;;17.57;;
7025;SDS011;3554;42.132;24.786;2022-12-10T00:31:33;33.20;;;16.90;;
7025;SDS011;3554;42.132;24.786;2022-12-10T00:34:04;32.97;;;17.30;;
7025;SDS011;3554;42.132;24.786;2022-12-10T00:36:33;40.23;;;19.97;;
7025;SDS011;3554;42.132;24.786;2022-12-10T00:39:02;36.77;;;18.80;;
7025;SDS011;3554;42.132;24.786;2022-12-10T00:41:29;37.50;;;18.33;;
7025;SDS011;3554;42.132;24.786;2022-12-10T00:43:56;38.07;;;18.80;;
7025;SDS011;3554;42.132;24.786;2022-12-10T00:46:23;38.30;;;18.13;;
7025;SDS011;3554;42.132;24.786;2022-12-10T00:48:50;41.43;;;19.97;;
7025;SDS011;3554;42.132;24.786;2022-12-10T00:51:19;41.83;;;19.77;;
7025;SDS011;3554;42.132;24.786;2022-12-10T00:53:47;45.03;;;20.60;;
7025;SDS011;3554;42.132;24.786;2022-12-10T00:56:16;42.27;;;20.90;;
7025;SDS011;3554;42.132;24.786;2022-12-10T00:58:44;43.10;;;20.23;;
7025;SDS011;3554;42.132;24.786;2022-12-10T01:01:12;40.37;;;19.30;;
7025;SDS011;3554;42.132;24.786;2022-12-10T01:03:41;44.70;;;19.87;;
7025;SDS011;3554;42.132;24.786;2022-12-10T01:06:09;51.70;;;20.63;;
7025;SDS011;3554;42.132;24.786;2022-12-10T01:08:39;47.23;;;21.23;;
7025;SDS011;3554;42.132;24.786;2022-12-10T01:11:07;47.33;;;21.80;;
7025;SDS011;3554;42.132;24.786;2022-12-10T01:13:34;45.93;;;20.53;;
7025;SDS011;3554;42.132;24.786;2022-12-10T01:16:02;53.37;;;24.10;;
7025;SDS011;3554;42.132;24.786;2022-12-10T01:18:30;59.57;;;22.90;;
7025;SDS011;3554;42.132;24.786;2022-12-10T01:20:59;42.43;;;19.80;;
7025;SDS011;3554;42.132;24.786;2022-12-10T01:23:27;51.57;;;22.17;;
7025;SDS011;3554;42.132;24.786;2022-12-10T01:25:59;52.70;;;22.27;;
7025;SDS011;3554;42.132;24.786;2022-12-10T01:28:30;56.93;;;22.93;;
7025;SDS011;3554;42.132;24.786;2022-12-10T01:30:59;47.20;;;21.83;;
7025;SDS011;3554;42.132;24.786;2022-12-10T01:33:27;50.27;;;22.20;;
7025;SDS011;3554;42.132;24.786;2022-12-10T01:35:55;56.33;;;22.97;;
7025;SDS011;3554;42.132;24.786;2022-12-10T01:38:21;53.07;;;21.27;;
7025;SDS011;3554;42.132;24.786;2022-12-10T01:40:48;47.97;;;22.80;;
7025;SDS011;3554;42.132;24.786;2022-12-10T01:43:16;56.50;;;23.50;;
7025;SDS011;3554;42.132;24.786;2022-12-10T01:45:43;56.53;;;24.43;;
7025;SDS011;3554;42.132;24.786;2022-12-10T01:48:10;53.17;;;22.43;;
7025;SDS011;3554;42.132;24.786;2022-12-10T01:50:37;57.23;;;23.83;;
7025;SDS011;3554;42.132;24.786;2022-12-10T01:53:04;57.57;;;24.33;;
7025;SDS011;3554;42.132;24.786;2022-12-10T01:58:18;59.83;;;23.03;;
7025;SDS011;3554;42.132;24.786;2022-12-10T02:00:51;64.53;;;25.80;;
7025;SDS011;3554;42.132;24.786;2022-12-10T02:03:28;58.80;;;24.93;;
7025;SDS011;3554;42.132;24.786;2022-12-10T02:06:04;65.97;;;27.50;;
7025;SDS011;3554;42.132;24.786;2022-12-10T02:08:36;64.27;;;26.47;;
7025;SDS011;3554;42.132;24.786;2022-12-10T02:11:13;70.03;;;27.93;;
7025;SDS011;3554;42.132;24.786;2022-12-10T02:13:45;74.40;;;28.67;;
7025;SDS011;3554;42.132;24.786;2022-12-10T02:16:24;70.30;;;29.10;;
7025;SDS011;3554;42.132;24.786;2022-12-10T02:18:58;72.97;;;26.67;;
7025;SDS011;3554;42.132;24.786;2022-12-10T02:21:36;75.73;;;30.13;;
7025;SDS011;3554;42.132;24.786;2022-12-10T02:24:08;88.73;;;32.50;;
7025;SDS011;3554;42.132;24.786;2022-12-10T02:26:40;85.77;;;32.40;;
7025;SDS011;3554;42.132;24.786;2022-12-10T02:29:13;89.57;;;32.83;;
7025;SDS011;3554;42.132;24.786;2022-12-10T02:31:44;87.57;;;34.83;;
7025;SDS011;3554;42.132;24.786;2022-12-10T02:34:15;86.73;;;33.63;;
7025;SDS011;3554;42.132;24.786;2022-12-10T02:36:44;88.23;;;35.67;;
7025;SDS011;3554;42.132;24.786;2022-12-10T02:39:14;93.67;;;34.37;;
7025;SDS011;3554;42.132;24.786;2022-12-10T02:41:46;85.73;;;32.77;;
7025;SDS011;3554;42.132;24.786;2022-12-10T02:44:17;80.93;;;33.07;;
7025;SDS011;3554;42.132;24.786;2022-12-10T02:46:46;86.43;;;33.23;;
7025;SDS011;3554;42.132;24.786;2022-12-10T02:49:15;80.20;;;32.33;;
7025;SDS011;3554;42.132;24.786;2022-12-10T02:51:43;79.87;;;30.47;;
7025;SDS011;3554;42.132;24.786;2022-12-10T02:57:06;69.63;;;30.07;;
7025;SDS011;3554;42.132;24.786;2022-12-10T02:59:42;73.03;;;31.40;;
7025;SDS011;3554;42.132;24.786;2022-12-10T03:02:23;73.20;;;29.33;;
7025;SDS011;3554;42.132;24.786;2022-12-10T03:05:00;71.43;;;28.90;;
7025;SDS011;3554;42.132;24.786;2022-12-10T03:07:32;67.73;;;28.20;;
7025;SDS011;3554;42.132;24.786;2022-12-10T03:10:03;61.83;;;29.30;;
7025;SDS011;3554;42.132;24.786;2022-12-10T03:12:36;62.33;;;28.17;;
7025;SDS011;3554;42.132;24.786;2022-12-10T03:15:09;56.47;;;26.97;;
7025;SDS011;3554;42.132;24.786;2022-12-10T03:17:37;62.67;;;26.87;;
7025;SDS011;3554;42.132;24.786;2022-12-10T03:20:06;54.70;;;26.27;;
7025;SDS011;3554;42.132;24.786;2022-12-10T03:22:37;55.23;;;25.83;;
7025;SDS011;3554;42.132;24.786;2022-12-10T03:25:07;60.27;;;26.07;;
7025;SDS011;3554;42.132;24.786;2022-12-10T03:27:37;54.73;;;24.37;;
7025;SDS011;3554;42.132;24.786;2022-12-10T03:30:09;58.90;;;26.07;;
7025;SDS011;3554;42.132;24.786;2022-12-10T03:32:36;58.53;;;27.30;;
7025;SDS011;3554;42.132;24.786;2022-12-10T03:35:04;63.43;;;27.07;;
7025;SDS011;3554;42.132;24.786;2022-12-10T03:37:32;53.57;;;26.33;;
7025;SDS011;3554;42.132;24.786;2022-12-10T03:40:00;59.47;;;27.10;;
7025;SDS011;3554;42.132;24.786;2022-12-10T03:42:28;58.03;;;25.80;;
7025;SDS011;3554;42.132;24.786;2022-12-10T03:44:54;63.03;;;26.83;;
7025;SDS011;3554;42.132;24.786;2022-12-10T03:47:22;61.57;;;26.90;;
7025;SDS011;3554;42.132;24.786;2022-12-10T03:49:50;56.37;;;27.73;;
7025;SDS011;3554;42.132;24.786;2022-12-10T03:52:17;60.67;;;27.47;;
7025;SDS011;3554;42.132;24.786;2022-12-10T03:54:44;61.63;;;28.27;;
7025;SDS011;3554;42.132;24.786;2022-12-10T03:57:10;59.87;;;27.23;;
7025;SDS011;3554;42.132;24.786;2022-12-10T03:59:37;57.17;;;26.70;;
7025;SDS011;3554;42.132;24.786;2022-12-10T04:02:04;54.27;;;26.40;;
7025;SDS011;3554;42.132;24.786;2022-12-10T04:04:32;64.33;;;27.13;;
7025;SDS011;3554;42.132;24.786;2022-12-10T04:06:59;58.03;;;27.27;;
7025;SDS011;3554;42.132;24.786;2022-12-10T04:09:26;73.53;;;27.20;;
7025;SDS011;3554;42.132;24.786;2022-12-10T04:11:55;66.23;;;29.17;;
7025;SDS011;3554;42.132;24.786;2022-12-10T04:14:22;60.87;;;26.17;;
7025;SDS011;3554;42.132;24.786;2022-12-10T04:17:07;66.33;;;24.77;;
7025;SDS011;3554;42.132;24.786;2022-12-10T04:19:35;59.00;;;25.93;;
7025;SDS011;3554;42.132;24.786;2022-12-10T04:22:02;65.53;;;27.27;;
7025;SDS011;3554;42.132;24.786;2022-12-10T04:24:47;61.47;;;25.53;;
7025;SDS011;3554;42.132;24.786;2022-12-10T04:27:32;58.77;;;25.90;;
7025;SDS011;3554;42.132;24.786;2022-12-10T04:30:02;57.97;;;27.07;;
7025;SDS011;3554;42.132;24.786;2022-12-10T04:32:32;55.80;;;24.43;;
7025;SDS011;3554;42.132;24.786;2022-12-10T04:35:03;59.00;;;24.77;;
7025;SDS011;3554;42.132;24.786;2022-12-10T04:37:30;65.17;;;27.47;;
7025;SDS011;3554;42.132;24.786;2022-12-10T04:39:59;60.70;;;24.73;;
7025;SDS011;3554;42.132;24.786;2022-12-10T04:42:29;60.67;;;25.40;;
7025;SDS011;3554;42.132;24.786;2022-12-10T04:44:56;67.30;;;25.57;;
7025;SDS011;3554;42.132;24.786;2022-12-10T04:47:23;61.17;;;23.87;;
7025;SDS011;3554;42.132;24.786;2022-12-10T04:49:50;57.37;;;24.80;;
7025;SDS011;3554;42.132;24.786;2022-12-10T04:52:19;54.50;;;24.73;;
7025;SDS011;3554;42.132;24.786;2022-12-10T04:54:45;63.87;;;24.97;;
7025;SDS011;3554;42.132;24.786;2022-12-10T04:57:12;56.67;;;23.63;;
7025;SDS011;3554;42.132;24.786;2022-12-10T04:59:39;52.27;;;23.03;;
7025;SDS011;3554;42.132;24.786;2022-12-10T05:02:06;54.53;;;22.60;;
7025;SDS011;3554;42.132;24.786;2022-12-10T05:04:33;53.13;;;21.60;;
7025;SDS011;3554;42.132;24.786;2022-12-10T05:07:00;58.83;;;22.07;;
7025;SDS011;3554;42.132;24.786;2022-12-10T05:09:28;48.73;;;21.40;;
7025;SDS011;3554;42.132;24.786;2022-12-10T05:11:55;51.17;;;22.57;;
7025;SDS011;3554;42.132;24.786;2022-12-10T05:14:22;56.57;;;23.03;;
7025;SDS011;3554;42.132;24.786;2022-12-10T05:16:50;48.20;;;21.97;;
7025;SDS011;3554;42.132;24.786;2022-12-10T05:19:17;50.40;;;21.77;;
7025;SDS011;3554;42.132;24.786;2022-12-10T05:21:46;45.20;;;20.47;;
7025;SDS011;3554;42.132;24.786;2022-12-10T05:24:28;48.23;;;21.13;;
7025;SDS011;3554;42.132;24.786;2022-12-10T05:26:56;46.03;;;21.13;;
7025;SDS011;3554;42.132;24.786;2022-12-10T05:29:23;44.00;;;20.87;;
7025;SDS011;3554;42.132;24.786;2022-12-10T05:31:50;37.87;;;19.07;;
7025;SDS011;3554;42.132;24.786;2022-12-10T05:34:17;40.57;;;19.40;;
7025;SDS011;3554;42.132;24.786;2022-12-10T05:36:44;45.00;;;19.60;;
7025;SDS011;3554;42.132;24.786;2022-12-10T05:39:11;45.73;;;19.70;;
7025;SDS011;3554;42.132;24.786;2022-12-10T05:41:39;39.23;;;19.23;;
7025;SDS011;3554;42.132;24.786;2022-12-10T05:44:06;44.17;;;19.00;;
7025;SDS011;3554;42.132;24.786;2022-12-10T05:46:34;42.37;;;20.10;;
7025;SDS011;3554;42.132;24.786;2022-12-10T05:49:02;42.10;;;20.03;;
7025;SDS011;3554;42.132;24.786;2022-12-10T05:51:31;45.33;;;19.23;;
7025;SDS011;3554;42.132;24.786;2022-12-10T05:53:59;47.73;;;21.00;;
7025;SDS011;3554;42.132;24.786;2022-12-10T05:56:28;55.47;;;21.43;;
7025;SDS011;3554;42.132;24.786;2022-12-10T05:58:58;46.60;;;19.83;;
7025;SDS011;3554;42.132;24.786;2022-12-10T06:01:27;44.83;;;19.77;;
7025;SDS011;3554;42.132;24.786;2022-12-10T06:03:56;40.40;;;18.93;;
7025;SDS011;3554;42.132;24.786;2022-12-10T06:06:24;41.87;;;18.37;;
7025;SDS011;3554;42.132;24.786;2022-12-10T06:08:52;37.97;;;19.30;;
7025;SDS011;3554;42.132;24.786;2022-12-10T06:11:20;36.47;;;18.37;;
7025;SDS011;3554;42.132;24.786;2022-12-10T06:13:47;37.73;;;18.37;;
7025;SDS011;3554;42.132;24.786;2022-12-10T06:16:15;38.47;;;17.63;;
7025;SDS011;3554;42.132;24.786;2022-12-10T06:18:42;39.47;;;18.73;;
7025;SDS011;3554;42.132;24.786;2022-12-10T06:21:10;38.03;;;18.77;;
7025;SDS011;3554;42.132;24.786;2022-12-10T06:23:38;38.37;;;18.73;;
7025;SDS011;3554;42.132;24.786;2022-12-10T06:26:06;41.80;;;18.17;;
7025;SDS011;3554;42.132;24.786;2022-12-10T06:28:34;36.77;;;18.43;;
7025;SDS011;3554;42.132;24.786;2022-12-10T06:31:01;38.13;;;18.33;;
7025;SDS011;3554;42.132;24.786;2022-12-10T06:33:29;35.80;;;16.93;;
7025;SDS011;3554;42.132;24.786;2022-12-10T06:35:56;37.30;;;18.20;;
7025;SDS011;3554;42.132;24.786;2022-12-10T06:38:23;37.43;;;18.13;;
